Canyon, California
Current Conditions -  °F | °C
As of 9:53 AM on Friday 24 Oct 2014 (Local Time) from KOAK Reporting Station
Clear Clear  
Wind Chill: 65°   Ceiling: Unl
Heat Index: 65°   Visibility: 10mi
Dew Point: 53°   Wind: 0mph
Humidity: 65%   Direction: NA
Pressure: 29.97"   Gusts: NA
Location:  37.83°N, 122.19°W
Report Text: KOAK 241653Z 00000KT 10SM CLR 18/12 A2997 RMK AO2 SLP148 T01830117
Loading
Personal Weather Stations






























Interactive Weather Map
Tropical Storm Tracking
New forecast layout! Learn more

10-Day Weather Forecast

Advertisements
Track Severe Weather on mobile